createdAt,value
2023-02-17T00:01:27.000Z,62.40
2023-02-17T00:03:53.529Z,62.60
2023-02-17T00:06:20.058Z,62.60
2023-02-17T00:08:46.534Z,62.70
2023-02-17T00:11:13.029Z,62.70
2023-02-17T00:13:39.514Z,62.70
2023-02-17T00:16:06.192Z,62.70
2023-02-17T00:18:32.881Z,62.70
2023-02-17T00:20:59.361Z,62.70
2023-02-17T00:23:25.864Z,62.80
2023-02-17T00:25:52.330Z,62.70
2023-02-17T00:28:18.840Z,62.70
2023-02-17T00:30:45.324Z,62.70
2023-02-17T00:33:11.812Z,62.70
2023-02-17T00:35:38.286Z,62.80
2023-02-17T00:38:04.792Z,62.80
2023-02-17T00:40:31.258Z,62.80
2023-02-17T00:42:57.747Z,62.80
2023-02-17T00:45:24.238Z,62.90
2023-02-17T00:47:50.721Z,63.00
2023-02-17T00:50:17.229Z,63.00
2023-02-17T00:52:43.717Z,63.10
2023-02-17T00:55:10.195Z,63.10
2023-02-17T00:57:36.671Z,63.20
2023-02-17T01:00:03.150Z,63.20
2023-02-17T01:02:29.616Z,63.30
2023-02-17T01:07:45.977Z,63.30
2023-02-17T01:10:12.455Z,63.30
2023-02-17T01:12:38.923Z,63.30
2023-02-17T01:15:05.392Z,63.30
2023-02-17T01:17:31.859Z,63.30
2023-02-17T01:19:58.369Z,63.30
2023-02-17T01:22:24.828Z,63.30
2023-02-17T01:24:51.331Z,63.40
2023-02-17T01:27:17.802Z,63.40
2023-02-17T01:29:44.278Z,63.50
2023-02-17T01:32:10.737Z,63.50
2023-02-17T01:34:37.219Z,63.50
2023-02-17T01:37:03.693Z,63.50
2023-02-17T01:39:30.171Z,63.60
2023-02-17T01:41:56.645Z,63.60
2023-02-17T01:44:23.163Z,63.60
2023-02-17T01:46:49.734Z,63.60
2023-02-17T01:49:16.259Z,63.80
2023-02-17T01:51:42.718Z,63.80
2023-02-17T01:54:09.228Z,63.90
2023-02-17T01:56:35.716Z,63.80
2023-02-17T01:59:02.215Z,63.80
2023-02-17T02:01:28.699Z,63.80
2023-02-17T02:03:55.177Z,63.90
2023-02-17T02:06:21.660Z,64.00
2023-02-17T02:08:48.152Z,63.90
2023-02-17T02:11:14.635Z,63.90
2023-02-17T02:13:41.104Z,64.10
2023-02-17T02:16:07.953Z,63.90
2023-02-17T02:18:34.639Z,64.10
2023-02-17T02:21:01.129Z,64.00
2023-02-17T02:23:27.597Z,64.20
2023-02-17T02:25:54.087Z,64.20
2023-02-17T02:28:20.556Z,64.00
2023-02-17T02:30:47.120Z,64.10
2023-02-17T02:33:13.602Z,64.10
2023-02-17T02:35:40.122Z,64.40
2023-02-17T02:38:07.153Z,64.40
2023-02-17T02:40:33.723Z,64.40
2023-02-17T02:43:00.197Z,64.30
2023-02-17T02:45:26.710Z,64.30
2023-02-17T02:47:53.189Z,64.40
2023-02-17T02:50:19.688Z,64.30
2023-02-17T02:52:46.148Z,64.40
2023-02-17T02:55:12.650Z,64.40
2023-02-17T02:57:39.114Z,64.40
2023-02-17T03:00:05.666Z,64.40
2023-02-17T03:02:32.137Z,64.40
2023-02-17T03:04:58.659Z,64.50
2023-02-17T03:07:25.138Z,64.40
2023-02-17T03:09:51.595Z,64.50
2023-02-17T03:12:21.765Z,64.40
2023-02-17T03:14:48.240Z,64.50
2023-02-17T03:17:14.745Z,64.40
2023-02-17T03:19:41.224Z,64.50
2023-02-17T03:22:07.699Z,64.60
2023-02-17T03:24:34.178Z,64.60
2023-02-17T03:27:00.685Z,64.50
2023-02-17T03:29:27.148Z,64.60
2023-02-17T03:31:53.714Z,64.50
2023-02-17T03:34:20.228Z,64.70
2023-02-17T03:36:46.716Z,64.60
2023-02-17T03:39:13.208Z,64.70
2023-02-17T03:41:39.674Z,64.70
2023-02-17T03:44:06.158Z,64.70
2023-02-17T03:46:32.662Z,64.70
2023-02-17T03:48:59.128Z,64.80
2023-02-17T03:51:25.612Z,64.80
2023-02-17T03:53:52.103Z,64.90
2023-02-17T03:56:18.603Z,64.90
2023-02-17T03:58:45.085Z,65.00
2023-02-17T04:01:11.628Z,65.00
2023-02-17T04:03:38.115Z,64.90
2023-02-17T04:06:04.969Z,65.00
2023-02-17T04:08:31.648Z,65.10
2023-02-17T04:10:58.146Z,65.10
2023-02-17T04:13:24.614Z,65.10
2023-02-17T04:15:51.144Z,65.00
2023-02-17T04:18:17.615Z,65.10
2023-02-17T04:20:44.111Z,65.20
2023-02-17T04:23:15.824Z,65.20
2023-02-17T04:25:42.311Z,65.20
2023-02-17T04:28:08.773Z,65.10
2023-02-17T04:30:35.288Z,65.20
2023-02-17T04:33:01.803Z,65.30
2023-02-17T04:35:28.272Z,65.30
2023-02-17T04:37:54.965Z,65.40
2023-02-17T04:40:21.797Z,65.40
2023-02-17T04:42:48.266Z,65.30
2023-02-17T04:45:15.809Z,65.40
2023-02-17T04:47:45.924Z,65.30
2023-02-17T04:50:12.418Z,65.40
2023-02-17T04:55:29.280Z,65.50
2023-02-17T04:57:55.740Z,65.40
2023-02-17T05:00:22.248Z,65.40
2023-02-17T05:02:48.746Z,65.30
2023-02-17T05:05:15.294Z,65.50
2023-02-17T05:07:41.840Z,65.60
2023-02-17T05:10:08.328Z,65.50
2023-02-17T05:12:34.822Z,65.60
2023-02-17T05:15:01.300Z,65.70
2023-02-17T05:17:27.832Z,65.60
2023-02-17T05:19:54.302Z,65.70
2023-02-17T05:22:20.768Z,65.80
2023-02-17T05:24:47.249Z,65.60
2023-02-17T05:27:13.781Z,65.70
2023-02-17T05:29:45.874Z,65.80
2023-02-17T05:32:12.332Z,65.70
2023-02-17T05:34:38.808Z,65.60
2023-02-17T05:37:05.268Z,65.70
2023-02-17T05:39:31.748Z,65.80
2023-02-17T05:41:58.221Z,65.80
2023-02-17T05:44:24.697Z,65.80
2023-02-17T05:46:51.198Z,65.80
2023-02-17T05:49:17.684Z,65.90
2023-02-17T05:51:44.173Z,65.90
2023-02-17T05:54:10.647Z,65.90
2023-02-17T05:56:37.131Z,66.00
2023-02-17T05:59:03.577Z,65.90
2023-02-17T06:01:35.203Z,66.00
2023-02-17T06:04:02.945Z,66.00
2023-02-17T06:06:29.415Z,66.00
2023-02-17T06:08:55.917Z,66.00
2023-02-17T06:11:22.385Z,66.00
2023-02-17T06:13:48.850Z,66.10
2023-02-17T06:16:15.389Z,66.20
2023-02-17T06:18:41.860Z,66.00
2023-02-17T06:21:08.339Z,66.10
2023-02-17T06:23:34.825Z,66.00
2023-02-17T06:26:01.320Z,66.10
2023-02-17T06:28:27.814Z,66.20
2023-02-17T06:30:54.402Z,66.10
2023-02-17T06:33:20.934Z,66.10
2023-02-17T06:35:47.512Z,66.20
2023-02-17T06:38:14.057Z,66.10
2023-02-17T06:40:40.596Z,66.20
2023-02-17T06:43:07.076Z,66.20
2023-02-17T06:45:33.576Z,66.20
2023-02-17T06:48:00.074Z,66.10
2023-02-17T06:50:26.550Z,66.20
2023-02-17T06:52:53.039Z,66.40
2023-02-17T06:55:19.520Z,66.20
2023-02-17T06:57:46.007Z,66.40
2023-02-17T07:00:12.484Z,66.30
2023-02-17T07:02:39.995Z,66.40
2023-02-17T07:05:07.651Z,66.40
2023-02-17T07:07:34.148Z,66.40
2023-02-17T07:10:00.641Z,66.50
2023-02-17T07:12:27.131Z,66.50
2023-02-17T07:14:53.605Z,66.50
2023-02-17T07:17:20.094Z,66.40
2023-02-17T07:19:46.568Z,66.50
2023-02-17T07:22:13.073Z,66.60
2023-02-17T07:24:39.554Z,66.80
2023-02-17T07:27:06.028Z,66.70
2023-02-17T07:29:32.489Z,66.80
2023-02-17T07:31:59.025Z,66.70
2023-02-17T07:34:25.511Z,66.60
2023-02-17T07:36:51.991Z,66.70
2023-02-17T07:39:18.490Z,66.80
2023-02-17T07:41:44.962Z,66.80
2023-02-17T07:44:11.462Z,66.70
2023-02-17T07:46:37.952Z,66.80
2023-02-17T07:49:04.445Z,66.90
2023-02-17T07:51:30.912Z,67.00
2023-02-17T07:53:57.414Z,67.00
2023-02-17T07:56:24.050Z,67.00
2023-02-17T07:58:50.527Z,67.00
2023-02-17T08:01:20.106Z,67.00
2023-02-17T08:03:46.602Z,67.20
2023-02-17T08:06:13.082Z,67.10
2023-02-17T08:08:39.574Z,67.10
2023-02-17T08:11:06.302Z,67.20
2023-02-17T08:13:32.912Z,67.20
2023-02-17T08:15:59.402Z,67.20
2023-02-17T08:18:25.924Z,67.30
2023-02-17T08:20:52.429Z,67.40
2023-02-17T08:23:18.952Z,67.40
2023-02-17T08:25:45.459Z,67.30
2023-02-17T08:28:11.944Z,67.40
2023-02-17T08:30:38.494Z,67.40
2023-02-17T08:33:05.069Z,67.40
2023-02-17T08:35:31.553Z,67.40
2023-02-17T08:37:58.014Z,67.50
2023-02-17T08:40:24.503Z,67.50
2023-02-17T08:42:50.986Z,67.60
2023-02-17T08:45:17.484Z,67.70
2023-02-17T08:47:43.966Z,67.70
2023-02-17T08:50:16.041Z,67.90
2023-02-17T08:52:42.527Z,67.80
2023-02-17T08:55:09.010Z,67.90
2023-02-17T08:57:35.552Z,67.80
2023-02-17T09:00:02.072Z,67.80
2023-02-17T09:02:28.558Z,67.90
2023-02-17T09:04:55.362Z,67.90
2023-02-17T09:07:21.903Z,67.90
2023-02-17T09:09:48.386Z,68.00
2023-02-17T09:12:14.951Z,68.10
2023-02-17T09:14:41.472Z,68.10
2023-02-17T09:17:07.986Z,68.20
2023-02-17T09:19:34.476Z,68.20
2023-02-17T09:22:00.940Z,68.30
2023-02-17T09:24:27.408Z,68.50
2023-02-17T09:26:53.877Z,68.40
2023-02-17T09:29:20.405Z,68.40
2023-02-17T09:31:46.972Z,68.50
2023-02-17T09:34:13.702Z,68.50
2023-02-17T09:36:40.223Z,68.70
2023-02-17T09:39:06.825Z,68.70
2023-02-17T09:41:33.370Z,68.60
2023-02-17T09:43:59.862Z,68.70
2023-02-17T09:46:26.346Z,68.70
2023-02-17T09:48:52.840Z,68.70
2023-02-17T09:51:19.349Z,68.80
2023-02-17T09:53:45.904Z,68.80
2023-02-17T09:56:16.103Z,68.70
2023-02-17T09:58:42.634Z,69.00
2023-02-17T10:01:09.122Z,69.10
2023-02-17T10:03:35.702Z,69.10
2023-02-17T10:06:02.278Z,69.20
2023-02-17T10:08:28.825Z,69.30
2023-02-17T10:10:55.346Z,69.50
2023-02-17T10:13:21.953Z,69.40
2023-02-17T10:15:48.576Z,69.70
2023-02-17T10:18:15.070Z,69.70
2023-02-17T10:20:41.558Z,69.90
2023-02-17T10:23:08.104Z,70.00
2023-02-17T10:25:34.668Z,69.80
2023-02-17T10:28:04.210Z,69.70
2023-02-17T10:30:30.810Z,69.60
2023-02-17T10:32:57.373Z,69.60
2023-02-17T10:35:23.865Z,69.70
2023-02-17T10:37:50.386Z,69.70
2023-02-17T10:40:16.903Z,69.60
2023-02-17T10:42:43.398Z,69.60
2023-02-17T10:45:09.865Z,69.70
2023-02-17T10:47:36.358Z,69.90
2023-02-17T10:50:04.906Z,69.70
2023-02-17T10:52:31.385Z,69.80
2023-02-17T10:54:57.854Z,69.80
2023-02-17T10:57:26.732Z,69.80
2023-02-17T10:59:53.560Z,69.80
2023-02-17T11:02:20.039Z,69.80
2023-02-17T11:04:46.518Z,69.60
2023-02-17T11:07:13.010Z,69.60
2023-02-17T11:09:39.489Z,69.60
2023-02-17T11:12:05.969Z,69.60
2023-02-17T11:14:32.443Z,69.60
2023-02-17T11:16:58.912Z,69.70
2023-02-17T11:19:25.382Z,69.60
2023-02-17T11:21:51.921Z,69.60
2023-02-17T11:24:18.419Z,69.60
2023-02-17T11:26:44.924Z,69.70
2023-02-17T11:29:11.389Z,69.70
2023-02-17T11:31:40.309Z,69.50
2023-02-17T11:34:06.876Z,69.60
2023-02-17T11:36:33.352Z,69.70
2023-02-17T11:38:59.859Z,69.80
2023-02-17T11:41:26.342Z,69.70
2023-02-17T11:43:52.833Z,69.70
2023-02-17T11:46:19.423Z,69.70
2023-02-17T11:48:46.006Z,69.70
2023-02-17T11:51:12.482Z,69.80
2023-02-17T11:53:38.966Z,69.80
2023-02-17T11:56:05.659Z,69.80
2023-02-17T11:58:32.263Z,69.60
2023-02-17T12:00:58.739Z,69.50
2023-02-17T12:03:25.263Z,69.70
2023-02-17T12:05:51.817Z,69.70
2023-02-17T12:08:18.287Z,69.70
2023-02-17T12:10:44.769Z,69.80
2023-02-17T12:13:11.259Z,69.80
2023-02-17T12:15:37.771Z,69.70
2023-02-17T12:18:04.251Z,69.60
2023-02-17T12:20:34.187Z,69.90
2023-02-17T12:23:00.660Z,69.80
2023-02-17T12:25:27.164Z,69.80
2023-02-17T12:27:53.666Z,69.80
2023-02-17T12:30:20.219Z,69.90
2023-02-17T12:32:46.788Z,69.70
2023-02-17T12:35:13.265Z,69.60
2023-02-17T12:37:39.748Z,69.70
2023-02-17T12:40:06.228Z,69.60
2023-02-17T12:42:32.698Z,69.70
2023-02-17T12:45:04.236Z,69.60
2023-02-17T12:47:30.727Z,69.60
2023-02-17T12:49:57.179Z,69.50
2023-02-17T12:52:23.660Z,69.60
2023-02-17T12:54:50.136Z,69.70
2023-02-17T12:57:16.625Z,69.60
2023-02-17T12:59:43.125Z,69.70
2023-02-17T13:02:09.637Z,69.70
2023-02-17T13:04:36.150Z,69.70
2023-02-17T13:07:02.637Z,69.60
2023-02-17T13:09:29.119Z,69.70
2023-02-17T13:11:55.611Z,69.60
2023-02-17T13:14:22.080Z,69.70
2023-02-17T13:16:48.579Z,69.80
2023-02-17T13:19:15.070Z,69.70
2023-02-17T13:21:41.584Z,69.80
2023-02-17T13:24:08.054Z,69.70
2023-02-17T13:26:34.547Z,69.80
2023-02-17T13:29:01.007Z,69.80
2023-02-17T13:31:27.618Z,69.70
2023-02-17T13:33:54.211Z,69.80
2023-02-17T13:36:20.710Z,69.70
2023-02-17T13:38:47.195Z,69.50
2023-02-17T13:41:13.677Z,69.90
2023-02-17T13:43:40.156Z,70.00
2023-02-17T13:46:07.070Z,69.90
2023-02-17T13:48:33.784Z,69.80
2023-02-17T13:51:00.260Z,69.80
2023-02-17T13:53:26.800Z,69.80
2023-02-17T13:55:53.293Z,69.90
2023-02-17T13:58:19.766Z,69.70
2023-02-17T14:00:46.242Z,69.80
2023-02-17T14:03:12.726Z,69.80
2023-02-17T14:05:40.229Z,69.80
2023-02-17T14:08:06.715Z,69.90
2023-02-17T14:10:33.195Z,70.00
2023-02-17T14:12:59.693Z,69.90
2023-02-17T14:15:26.179Z,70.00
2023-02-17T14:17:52.650Z,69.80
2023-02-17T14:20:19.119Z,69.80
2023-02-17T14:22:55.910Z,69.70
2023-02-17T14:25:29.104Z,69.80
2023-02-17T14:27:55.621Z,70.00
2023-02-17T14:30:22.122Z,69.90
2023-02-17T14:32:48.613Z,69.90
2023-02-17T14:35:15.136Z,69.80
2023-02-17T14:37:41.655Z,69.80
2023-02-17T14:40:08.112Z,69.80
2023-02-17T14:42:34.613Z,70.10
2023-02-17T14:45:01.094Z,69.90
2023-02-17T14:47:27.592Z,70.00
2023-02-17T14:49:56.260Z,70.00
2023-02-17T14:52:22.740Z,70.10
2023-02-17T14:54:49.236Z,70.40
2023-02-17T14:57:15.722Z,70.00
2023-02-17T14:59:42.209Z,70.10
2023-02-17T15:02:08.690Z,70.10
2023-02-17T15:04:35.190Z,70.10
2023-02-17T15:07:04.302Z,69.90
2023-02-17T15:09:30.826Z,70.10
2023-02-17T15:11:57.342Z,70.10
2023-02-17T15:14:23.831Z,70.20
2023-02-17T15:16:50.301Z,70.30
2023-02-17T15:19:22.338Z,70.20
2023-02-17T15:21:48.819Z,70.30
2023-02-17T15:24:15.286Z,70.40
2023-02-17T15:26:41.753Z,70.10
2023-02-17T15:29:08.179Z,70.30
2023-02-17T15:31:34.714Z,70.40
2023-02-17T15:34:01.223Z,70.40
2023-02-17T15:36:27.689Z,70.30
2023-02-17T15:38:54.116Z,70.60
2023-02-17T15:41:20.610Z,70.50
2023-02-17T15:43:47.097Z,70.60
2023-02-17T15:46:13.617Z,70.60
2023-02-17T15:48:40.158Z,70.70
2023-02-17T15:51:06.664Z,70.60
2023-02-17T15:53:33.153Z,70.80
2023-02-17T15:55:59.650Z,70.70
2023-02-17T15:58:26.123Z,70.60
2023-02-17T16:00:52.623Z,70.50
2023-02-17T16:03:19.204Z,70.60
2023-02-17T16:05:45.717Z,70.60
2023-02-17T16:08:12.213Z,70.70
2023-02-17T16:10:38.708Z,70.70
2023-02-17T16:13:05.191Z,70.70
2023-02-17T16:15:31.690Z,70.90
2023-02-17T16:17:58.157Z,70.70
2023-02-17T16:20:28.404Z,70.70
2023-02-17T16:22:54.865Z,70.80
2023-02-17T16:25:21.347Z,71.00
2023-02-17T16:27:47.836Z,70.90
2023-02-17T16:30:14.427Z,70.80
2023-02-17T16:32:40.982Z,70.70
2023-02-17T16:35:07.487Z,70.70
2023-02-17T16:37:33.954Z,70.70
2023-02-17T16:40:00.421Z,70.80
2023-02-17T16:42:26.884Z,70.80
2023-02-17T16:44:53.410Z,70.70
2023-02-17T16:47:19.896Z,70.60
2023-02-17T16:49:46.369Z,70.60
2023-02-17T16:52:12.853Z,70.60
2023-02-17T16:54:39.355Z,70.60
2023-02-17T16:57:05.833Z,70.70
2023-02-17T16:59:32.326Z,70.80
2023-02-17T17:01:58.793Z,70.90
2023-02-17T17:04:25.309Z,70.60
2023-02-17T17:06:51.778Z,70.70
2023-02-17T17:09:18.291Z,70.80
2023-02-17T17:11:44.790Z,70.80
2023-02-17T17:14:11.298Z,70.70
2023-02-17T17:16:37.896Z,70.60
2023-02-17T17:19:04.467Z,70.80
2023-02-17T17:21:30.949Z,70.90
2023-02-17T17:23:57.498Z,70.80
2023-02-17T17:26:28.478Z,70.70
2023-02-17T17:28:54.972Z,70.80
2023-02-17T17:31:21.529Z,70.70
2023-02-17T17:33:48.030Z,70.70
2023-02-17T17:36:14.514Z,70.70
2023-02-17T17:38:41.000Z,70.70
2023-02-17T17:41:07.490Z,70.70
2023-02-17T17:43:33.986Z,70.70
2023-02-17T17:46:00.488Z,70.70
2023-02-17T17:48:28.416Z,70.70
2023-02-17T17:50:54.885Z,70.70
2023-02-17T17:53:21.372Z,70.70
2023-02-17T17:55:47.849Z,70.70
2023-02-17T17:58:14.309Z,70.70
2023-02-17T18:00:40.774Z,70.70
2023-02-17T18:03:07.244Z,70.70
2023-02-17T18:05:33.723Z,70.60
2023-02-17T18:08:00.185Z,70.70
2023-02-17T18:10:28.468Z,70.70
2023-02-17T18:12:54.944Z,70.80
2023-02-17T18:15:21.473Z,70.90
2023-02-17T18:17:47.970Z,70.80
2023-02-17T18:20:14.518Z,70.70
2023-02-17T18:22:40.999Z,70.80
2023-02-17T18:25:07.479Z,70.80
2023-02-17T18:27:33.961Z,70.70
2023-02-17T18:30:00.470Z,70.80
2023-02-17T18:32:26.966Z,70.70
2023-02-17T18:34:53.520Z,70.70
2023-02-17T18:37:20.090Z,70.70
2023-02-17T18:39:46.554Z,70.70
2023-02-17T18:42:13.048Z,70.80
2023-02-17T18:44:39.522Z,70.80
2023-02-17T18:47:06.002Z,70.90
2023-02-17T18:49:32.492Z,70.80
2023-02-17T18:51:58.998Z,70.80
2023-02-17T18:54:25.480Z,70.90
2023-02-17T18:56:51.970Z,70.90
2023-02-17T18:59:18.500Z,70.80
2023-02-17T19:01:45.059Z,70.90
2023-02-17T19:04:11.560Z,70.80
2023-02-17T19:06:38.034Z,70.90
2023-02-17T19:09:04.523Z,70.80
2023-02-17T19:11:31.015Z,70.90
2023-02-17T19:13:58.504Z,70.90
2023-02-17T19:16:24.990Z,70.90
2023-02-17T19:18:51.462Z,70.80
2023-02-17T19:21:17.946Z,70.90
2023-02-17T19:23:44.549Z,70.90
2023-02-17T19:26:11.071Z,70.90
2023-02-17T19:28:37.556Z,70.90
2023-02-17T19:31:04.206Z,70.90
2023-02-17T19:33:30.735Z,71.00
2023-02-17T19:35:57.248Z,71.00
2023-02-17T19:38:23.745Z,71.00
2023-02-17T19:40:50.245Z,71.00
2023-02-17T19:43:16.723Z,71.00
2023-02-17T19:45:43.213Z,71.10
2023-02-17T19:48:09.680Z,71.10
2023-02-17T19:50:36.179Z,71.00
2023-02-17T19:53:02.657Z,71.10
2023-02-17T19:55:29.143Z,71.10
2023-02-17T19:57:55.615Z,71.20
2023-02-17T20:00:22.121Z,71.10
2023-02-17T20:02:48.641Z,71.10
2023-02-17T20:05:15.280Z,71.20
2023-02-17T20:07:41.758Z,71.20
2023-02-17T20:10:08.245Z,71.10
2023-02-17T20:12:34.705Z,71.20
2023-02-17T20:15:01.182Z,71.10
2023-02-17T20:17:27.672Z,71.20
2023-02-17T20:19:54.129Z,71.10
2023-02-17T20:22:20.618Z,71.10
2023-02-17T20:24:47.094Z,71.20
2023-02-17T20:27:13.573Z,71.30
2023-02-17T20:29:40.057Z,71.30
2023-02-17T20:32:06.620Z,71.20
2023-02-17T20:34:33.146Z,71.20
2023-02-17T20:36:59.637Z,71.20
2023-02-17T20:39:26.140Z,71.10
2023-02-17T20:41:52.600Z,71.10
2023-02-17T20:44:19.083Z,71.20
2023-02-17T20:46:46.798Z,71.20
2023-02-17T20:49:13.324Z,71.30
2023-02-17T20:51:39.802Z,71.30
2023-02-17T20:54:06.284Z,71.20
2023-02-17T20:56:32.751Z,71.30
2023-02-17T20:58:59.233Z,71.40
2023-02-17T21:01:25.707Z,71.40
2023-02-17T21:03:52.172Z,71.40
2023-02-17T21:06:18.662Z,71.30
2023-02-17T21:08:45.692Z,71.30
2023-02-17T21:11:12.212Z,71.30
2023-02-17T21:13:38.685Z,71.40
2023-02-17T21:16:10.889Z,71.50
2023-02-17T21:18:37.438Z,71.40
2023-02-17T21:21:03.932Z,71.40
2023-02-17T21:23:30.413Z,71.40
2023-02-17T21:25:56.887Z,71.30
2023-02-17T21:28:23.372Z,71.30
2023-02-17T21:30:49.841Z,71.30
2023-02-17T21:33:16.325Z,71.30
2023-02-17T21:35:42.813Z,71.30
2023-02-17T21:38:09.297Z,71.20
2023-02-17T21:40:40.632Z,71.10
2023-02-17T21:43:07.091Z,71.20
2023-02-17T21:45:33.599Z,71.20
2023-02-17T21:48:00.101Z,71.20
2023-02-17T21:50:28.647Z,71.10
2023-02-17T21:52:55.121Z,71.20
2023-02-17T21:55:22.616Z,71.20
2023-02-17T21:57:49.091Z,71.30
2023-02-17T22:00:15.567Z,71.20
2023-02-17T22:02:44.162Z,71.30
2023-02-17T22:05:10.759Z,71.20
2023-02-17T22:07:37.247Z,71.30
2023-02-17T22:10:03.713Z,71.30
2023-02-17T22:12:30.183Z,71.40
2023-02-17T22:14:56.653Z,71.30
2023-02-17T22:17:23.139Z,71.40
2023-02-17T22:19:49.623Z,71.30
2023-02-17T22:22:16.126Z,71.30
2023-02-17T22:24:42.611Z,71.30
2023-02-17T22:27:09.105Z,71.40
2023-02-17T22:29:35.558Z,71.40
2023-02-17T22:32:02.156Z,71.40
2023-02-17T22:34:28.722Z,71.30
2023-02-17T22:36:55.249Z,71.30
2023-02-17T22:39:21.737Z,71.30
2023-02-17T22:41:48.236Z,71.30
2023-02-17T22:44:14.707Z,71.30
2023-02-17T22:46:41.188Z,71.30
2023-02-17T22:49:07.655Z,71.30
2023-02-17T22:51:34.141Z,71.30
2023-02-17T22:54:00.617Z,71.40
2023-02-17T22:56:27.109Z,71.40
2023-02-17T22:58:58.856Z,71.40
2023-02-17T23:01:25.376Z,71.40
2023-02-17T23:03:53.707Z,71.40
2023-02-17T23:06:20.619Z,71.40
2023-02-17T23:08:47.090Z,71.50
2023-02-17T23:11:13.570Z,71.50
2023-02-17T23:13:40.041Z,71.60
2023-02-17T23:16:06.935Z,71.50
2023-02-17T23:18:33.626Z,71.50
2023-02-17T23:21:00.126Z,71.50
2023-02-17T23:23:26.616Z,71.50
2023-02-17T23:25:53.096Z,71.50
2023-02-17T23:28:19.573Z,71.40
2023-02-17T23:30:46.077Z,71.50
2023-02-17T23:33:12.575Z,71.60
2023-02-17T23:35:39.061Z,71.60
2023-02-17T23:38:05.523Z,71.50
2023-02-17T23:40:31.992Z,71.50
2023-02-17T23:42:58.478Z,71.40
2023-02-17T23:45:24.968Z,71.50
2023-02-17T23:47:51.493Z,71.60
2023-02-17T23:50:17.963Z,71.60
2023-02-17T23:52:44.475Z,71.60
2023-02-17T23:55:10.945Z,71.60
2023-02-17T23:57:37.438Z,71.50
